LDDU Airport Information

Runway Information
Runway 12 Length 10827 ft width 148 ft
Elevation 519 ft Threshold 488 ft Heading 118
Runway 30 Length 10827 ft Width 148 ft
Elevation 484 ft Threshold 0 ft Heading 298
Airport Frequencies
Type APP Name APP Frequency 123.6 MHZ
Type TWR Name TWR Frequency 129.5 MHZ
Airport Navaids
Type NDB Name Dubrovnik Frequency 397 KHZ
Type VOR-DME Name Dubrovnik Frequency 115400 KHZ
Type NDB Name Dubrovnik Frequency 414 KHZ
Type NDB Name Kolocep Frequency 318 KHZ
Airport Weather Information & NOTAM
ADDS - METARS form results

(0451 UTC 19 June 2019)
Data provider http://aviationweather.gov/metar/data/
 
METAR text: LDDU 190430Z 06007KT CAVOK 23/12 Q1014 NOSIG
Conditions at: LDDU (DUBROVNIK-CILIPI, HR) observed 0430 UTC 19 June 2019
Temperature: 23.0°C (73°F)
Dewpoint: 12.0°C (54°F) [RH = 50%]
Pressure (altimeter): 29.94 inches Hg (1014.0 mb)
Winds: from the ENE (60 degrees) at 8 MPH (7 knots; 3.6 m/s)
Visibility: 6 or more miles (10+ km)
Ceiling: ceiling and visibility are OK
Clouds: unknown
Weather: no significant weather observed at this time

METAR text: LDDU 190400Z 06007KT CAVOK 23/12 Q1014 NOSIG
Conditions at: LDDU (DUBROVNIK-CILIPI, HR) observed 0400 UTC 19 June 2019
Temperature: 23.0°C (73°F)
Dewpoint: 12.0°C (54°F) [RH = 50%]
Pressure (altimeter): 29.94 inches Hg (1014.0 mb)
Winds: from the ENE (60 degrees) at 8 MPH (7 knots; 3.6 m/s)
Visibility: 6 or more miles (10+ km)
Ceiling: ceiling and visibility are OK
Clouds: unknown
Weather: no significant weather observed at this time

Forecast for: LDDU (DUBROVNIK-CILIPI, HR)
Text: TAF LDDU 182325Z 1900/2000 01010KT CAVOK TX28/1911Z TN22/1904Z
Forecast period: 0000 to 0900 UTC 19 June 2019
Forecast type: FROM: standard forecast or significant change
Winds: from the N (10 degrees) at 12 MPH (10 knots; 5.1 m/s)
Visibility: 6 or more miles 10+ km)
Ceiling: unknown
Clouds: missing
Weather: no significant weather forecast for this period
Text: BECMG 1909/1911 26010KT
Forecast period: 0900 to 1600 UTC 19 June 2019
Forecast type: BECOMING: Conditions expected to become as follows by 1100 UTC 19 June 2019
Winds: from the W (260 degrees) at 12 MPH (10 knots; 5.1 m/s)
Visibility: 6 or more miles 10+ km)
Ceiling: unknown
Clouds: missing
Weather: no significant weather forecast for this period
Text: PROB30
Forecast period: 0900 to 1500 UTC 19 June 2019
Forecast type: TEMPORARY: The following changes expected for less than half the time period
Visibility: missing
Ceiling: at least 12,000 feet AGL
Clouds: few clouds at 3500 feet AGL
Weather: -TSRA  (light rain associated with thunderstorm(s))
Text: TEMPO 1909/1915 -TSRA FEW035CB
Forecast period: 1600 UTC 19 June 2019 to 0000 UTC 20 June 2019
Forecast type: BECOMING: Conditions expected to become as follows by 1800 UTC 19 June 2019
Winds: from the E (80 degrees) at 6 MPH (5 knots; 2.6 m/s)
Visibility: 6 or more miles 10+ km)
Ceiling: unknown
Clouds: missing
Weather: no significant weather forecast for this period